createdAt,value
2022-08-30T00:01:05.380Z,3.92
2022-08-30T00:03:42.760Z,4.47
2022-08-30T00:06:09.533Z,4.03
2022-08-30T00:08:36.950Z,4.40
2022-08-30T00:11:04.816Z,4.78
2022-08-30T00:13:31.203Z,4.78
2022-08-30T00:15:58.189Z,5.30
2022-08-30T00:18:24.880Z,4.68
2022-08-30T00:20:52.059Z,5.20
2022-08-30T00:23:19.325Z,4.97
2022-08-30T00:25:45.654Z,5.13
2022-08-30T00:28:12.859Z,5.07
2022-08-30T00:30:39.829Z,5.20
2022-08-30T00:33:06.229Z,4.75
2022-08-30T00:35:32.626Z,5.13
2022-08-30T00:37:58.975Z,5.28
2022-08-30T00:40:27.447Z,5.28
2022-08-30T00:42:59.233Z,5.80
2022-08-30T00:45:36.958Z,5.30
2022-08-30T00:48:03.511Z,5.65
2022-08-30T00:50:37.854Z,5.10
2022-08-30T00:53:05.831Z,5.18
2022-08-30T00:55:33.158Z,5.30
2022-08-30T00:58:01.925Z,5.25
2022-08-30T01:00:31.003Z,5.45
2022-08-30T01:02:57.448Z,5.70
2022-08-30T01:05:23.911Z,5.75
2022-08-30T01:07:50.526Z,6.22
2022-08-30T01:10:17.416Z,6.00
2022-08-30T01:12:44.734Z,6.28
2022-08-30T01:15:12.866Z,6.47
2022-08-30T01:17:41.330Z,5.75
2022-08-30T01:20:09.769Z,6.95
2022-08-30T01:22:36.074Z,6.50
2022-08-30T01:25:02.660Z,6.85
2022-08-30T01:27:31.042Z,6.93
2022-08-30T01:29:58.255Z,6.43
2022-08-30T01:32:29.058Z,6.22
2022-08-30T01:34:56.481Z,6.60
2022-08-30T01:37:27.817Z,7.28
2022-08-30T01:39:54.420Z,7.28
2022-08-30T01:42:20.749Z,7.93
2022-08-30T01:44:48.638Z,7.40
2022-08-30T01:47:15.739Z,7.00
2022-08-30T01:49:42.056Z,7.38
2022-08-30T01:52:08.654Z,7.78
2022-08-30T01:54:38.211Z,8.15
2022-08-30T01:57:05.954Z,7.90
2022-08-30T01:59:32.310Z,8.55
2022-08-30T02:01:58.693Z,8.95
2022-08-30T02:04:26.795Z,8.93
2022-08-30T02:06:53.428Z,8.27
2022-08-30T02:09:20.006Z,8.15
2022-08-30T02:11:47.988Z,8.57
2022-08-30T02:14:14.735Z,9.52
2022-08-30T02:16:41.234Z,9.23
2022-08-30T02:19:08.023Z,9.68
2022-08-30T02:21:34.327Z,9.52
2022-08-30T02:24:00.680Z,9.15
2022-08-30T02:26:27.124Z,8.93
2022-08-30T02:28:53.655Z,10.10
2022-08-30T02:31:20.964Z,9.75
2022-08-30T02:33:48.351Z,9.50
2022-08-30T02:36:15.310Z,9.95
2022-08-30T02:38:41.665Z,9.88
2022-08-30T02:41:07.949Z,10.52
2022-08-30T02:43:34.269Z,10.15
2022-08-30T02:46:00.683Z,10.07
2022-08-30T02:48:27.061Z,10.27
2022-08-30T02:50:53.555Z,10.25
2022-08-30T02:53:21.076Z,10.32
2022-08-30T02:55:48.047Z,10.85
2022-08-30T02:58:14.351Z,10.55
2022-08-30T03:00:41.323Z,10.30
2022-08-30T03:03:08.380Z,9.85
2022-08-30T03:05:35.682Z,10.30
2022-08-30T03:08:06.150Z,11.07
2022-08-30T03:10:32.454Z,11.02
2022-08-30T03:12:58.806Z,11.13
2022-08-30T03:15:25.706Z,10.60
2022-08-30T03:17:52.994Z,10.27
2022-08-30T03:20:19.677Z,10.68
2022-08-30T03:22:46.118Z,11.32
2022-08-30T03:25:12.523Z,11.13
2022-08-30T03:27:39.531Z,11.68
2022-08-30T03:30:06.466Z,10.93
2022-08-30T03:32:32.842Z,11.93
2022-08-30T03:34:59.634Z,11.02
2022-08-30T03:37:27.590Z,11.50
2022-08-30T03:39:54.897Z,11.52
2022-08-30T03:42:21.399Z,11.18
2022-08-30T03:44:50.048Z,11.30
2022-08-30T03:47:16.408Z,11.68
2022-08-30T03:49:42.910Z,12.10
2022-08-30T03:52:10.243Z,12.20
2022-08-30T03:54:36.658Z,11.45
2022-08-30T03:57:04.469Z,11.60
2022-08-30T03:59:30.759Z,11.05
2022-08-30T04:01:58.583Z,12.07
2022-08-30T04:04:25.320Z,11.20
2022-08-30T04:06:51.637Z,11.13
2022-08-30T04:09:18.760Z,11.52
2022-08-30T04:11:45.083Z,12.07
2022-08-30T04:14:11.423Z,13.02
2022-08-30T04:16:37.798Z,11.80
2022-08-30T04:19:04.178Z,12.93
2022-08-30T04:21:30.790Z,13.13
2022-08-30T04:23:57.262Z,12.27
2022-08-30T04:26:23.599Z,12.65
2022-08-30T04:28:55.749Z,12.77
2022-08-30T04:31:22.230Z,11.45
2022-08-30T04:33:48.595Z,13.07
2022-08-30T04:36:15.289Z,12.77
2022-08-30T04:38:41.961Z,12.77
2022-08-30T04:41:13.076Z,12.05
2022-08-30T04:43:39.846Z,11.98
2022-08-30T04:46:07.158Z,12.60
2022-08-30T04:48:33.928Z,12.30
2022-08-30T04:51:00.362Z,12.13
2022-08-30T04:53:26.672Z,11.18
2022-08-30T04:55:52.976Z,11.85
2022-08-30T04:58:19.332Z,11.77
2022-08-30T05:00:45.696Z,12.02
2022-08-30T05:03:12.624Z,11.95
2022-08-30T05:05:41.866Z,11.80
2022-08-30T05:08:12.623Z,11.63
2022-08-30T05:10:45.145Z,11.73
2022-08-30T05:15:39.559Z,9.25
2022-08-30T05:18:07.466Z,10.65
2022-08-30T05:20:34.364Z,10.98
2022-08-30T05:23:00.813Z,10.38
2022-08-30T05:25:29.242Z,9.73
2022-08-30T05:27:55.978Z,10.40
2022-08-30T05:30:22.896Z,9.60
2022-08-30T05:32:49.291Z,8.75
2022-08-30T05:35:16.286Z,9.18
2022-08-30T05:37:42.748Z,9.57
2022-08-30T05:40:11.417Z,8.70
2022-08-30T05:42:38.440Z,9.15
2022-08-30T05:45:05.768Z,9.70
2022-08-30T05:47:32.114Z,8.68
2022-08-30T05:49:58.414Z,9.18
2022-08-30T05:52:24.718Z,9.30
2022-08-30T05:54:52.313Z,8.98
2022-08-30T05:57:19.050Z,8.55
2022-08-30T05:59:45.784Z,8.32
2022-08-30T06:02:12.176Z,7.90
2022-08-30T06:04:38.654Z,7.65
2022-08-30T06:07:05.075Z,6.97
2022-08-30T06:09:31.510Z,7.57
2022-08-30T06:11:57.931Z,7.30
2022-08-30T06:14:24.663Z,7.55
2022-08-30T06:16:51.749Z,6.63
2022-08-30T06:19:18.252Z,6.68
2022-08-30T06:21:47.698Z,7.25
2022-08-30T06:24:14.478Z,6.60
2022-08-30T06:26:42.505Z,6.38
2022-08-30T06:29:10.165Z,6.55
2022-08-30T06:31:36.607Z,6.15
2022-08-30T06:34:03.667Z,6.22
2022-08-30T06:36:30.364Z,5.65
2022-08-30T06:38:56.983Z,6.22
2022-08-30T06:41:24.993Z,5.50
2022-08-30T06:43:51.299Z,5.18
2022-08-30T06:46:22.699Z,5.40
2022-08-30T06:48:49.475Z,4.93
2022-08-30T06:51:19.049Z,5.00
2022-08-30T06:53:45.999Z,4.25
2022-08-30T06:56:16.497Z,3.85
2022-08-30T06:58:43.526Z,4.07
2022-08-30T07:01:14.051Z,3.40
2022-08-30T07:03:40.678Z,3.13
2022-08-30T07:06:07.647Z,3.10
2022-08-30T07:08:33.975Z,2.95
2022-08-30T07:11:00.303Z,2.47
2022-08-30T07:13:28.446Z,2.42
2022-08-30T07:15:54.813Z,2.58
2022-08-30T07:18:39.829Z,1.90
2022-08-30T07:21:10.422Z,2.00
2022-08-30T07:23:37.128Z,1.80
2022-08-30T07:26:04.749Z,1.63
2022-08-30T07:28:31.353Z,1.75
2022-08-30T07:30:57.708Z,1.42
2022-08-30T07:33:24.047Z,1.50
2022-08-30T07:35:50.374Z,1.50
2022-08-30T07:38:16.695Z,1.70
2022-08-30T07:40:43.019Z,1.50
2022-08-30T07:43:09.464Z,1.63
2022-08-30T07:45:37.079Z,1.20
2022-08-30T07:48:04.091Z,1.48
2022-08-30T07:50:30.418Z,1.17
2022-08-30T07:52:56.762Z,1.08
2022-08-30T07:55:23.111Z,1.30
2022-08-30T07:57:49.519Z,1.42
2022-08-30T08:00:16.030Z,1.00
2022-08-30T08:02:42.453Z,1.10
2022-08-30T08:05:10.290Z,1.10
2022-08-30T08:07:39.150Z,1.08
2022-08-30T08:10:05.817Z,1.10
2022-08-30T08:12:32.190Z,1.20
2022-08-30T08:14:58.481Z,1.85
2022-08-30T08:17:24.786Z,1.23
2022-08-30T08:19:51.588Z,1.52
2022-08-30T08:22:21.681Z,1.23
2022-08-30T08:24:48.687Z,1.40
2022-08-30T08:27:15.007Z,1.23
2022-08-30T08:29:41.333Z,1.27
2022-08-30T08:32:07.647Z,1.30
2022-08-30T08:34:34.661Z,1.20
2022-08-30T08:37:01.003Z,1.40
2022-08-30T08:39:27.316Z,1.25
2022-08-30T08:41:56.434Z,1.20
2022-08-30T08:44:34.435Z,1.40
2022-08-30T08:47:04.042Z,1.33
2022-08-30T08:49:30.831Z,1.42
2022-08-30T08:52:16.395Z,1.30
2022-08-30T08:54:52.170Z,1.10
2022-08-30T08:57:22.702Z,1.10
2022-08-30T08:59:54.226Z,1.30
2022-08-30T09:02:28.762Z,1.20
2022-08-30T09:04:57.885Z,1.50
2022-08-30T09:07:26.026Z,1.30
2022-08-30T09:09:52.369Z,1.27
2022-08-30T09:12:18.793Z,1.55
2022-08-30T09:14:51.132Z,1.20
2022-08-30T09:17:22.824Z,1.10
2022-08-30T09:19:51.995Z,1.35
2022-08-30T09:22:27.498Z,1.70
2022-08-30T09:24:59.558Z,1.23
2022-08-30T09:27:30.370Z,1.30
2022-08-30T09:29:58.669Z,1.75
2022-08-30T09:32:42.053Z,1.60
2022-08-30T09:35:17.977Z,1.38
2022-08-30T09:37:51.791Z,1.30
2022-08-30T09:40:23.833Z,1.30
2022-08-30T09:43:22.590Z,1.40
2022-08-30T09:46:00.972Z,1.27
2022-08-30T09:48:29.339Z,1.45
2022-08-30T09:51:11.795Z,1.33
2022-08-30T09:53:38.178Z,1.38
2022-08-30T09:56:10.379Z,1.17
2022-08-30T09:58:56.596Z,1.45
2022-08-30T10:01:52.463Z,1.60
2022-08-30T10:04:34.524Z,1.25
2022-08-30T10:07:19.623Z,1.58
2022-08-30T10:09:51.971Z,1.48
2022-08-30T10:12:20.831Z,1.33
2022-08-30T10:14:49.914Z,1.33
2022-08-30T10:17:26.971Z,1.42
2022-08-30T10:19:53.471Z,1.08
2022-08-30T10:22:30.961Z,1.70
2022-08-30T10:25:17.886Z,1.45
2022-08-30T10:27:54.471Z,1.70
2022-08-30T10:30:20.902Z,1.30
2022-08-30T10:32:52.341Z,1.20
2022-08-30T10:35:19.665Z,1.60
2022-08-30T10:37:58.406Z,1.50
2022-08-30T10:40:54.345Z,1.33
2022-08-30T10:43:23.235Z,1.40
2022-08-30T10:45:50.590Z,1.13
2022-08-30T10:48:24.918Z,1.08
2022-08-30T10:50:53.611Z,1.30
2022-08-30T10:53:24.846Z,1.63
2022-08-30T10:55:55.393Z,1.15
2022-08-30T10:58:21.865Z,1.45
2022-08-30T11:00:51.244Z,1.30
2022-08-30T11:03:20.355Z,1.30
2022-08-30T11:06:06.228Z,1.35
2022-08-30T11:08:48.763Z,1.48
2022-08-30T11:11:29.830Z,1.20
2022-08-30T11:16:43.289Z,1.60
2022-08-30T11:19:18.865Z,1.90
2022-08-30T11:21:47.410Z,1.52
2022-08-30T11:24:17.225Z,1.98
2022-08-30T11:26:46.785Z,1.30
2022-08-30T11:29:39.400Z,1.27
2022-08-30T11:32:17.142Z,1.33
2022-08-30T11:34:46.563Z,1.30
2022-08-30T11:37:31.429Z,1.27
2022-08-30T11:40:03.797Z,1.40
2022-08-30T11:42:37.447Z,1.33
2022-08-30T11:45:40.500Z,1.63
2022-08-30T11:48:09.860Z,1.20
2022-08-30T11:50:48.381Z,1.42
2022-08-30T11:53:32.944Z,2.53
2022-08-30T11:56:10.165Z,1.20
2022-08-30T11:58:44.124Z,1.60
2022-08-30T12:01:38.648Z,1.60
2022-08-30T12:04:08.172Z,1.40
2022-08-30T12:06:41.733Z,1.45
2022-08-30T12:09:30.083Z,2.00
2022-08-30T12:12:04.914Z,1.98
2022-08-30T12:14:44.622Z,1.70
2022-08-30T12:17:33.487Z,2.17
2022-08-30T12:20:00.070Z,1.92
2022-08-30T12:22:27.635Z,1.98
2022-08-30T12:24:54.512Z,1.70
2022-08-30T12:27:32.748Z,1.52
2022-08-30T12:30:05.773Z,1.92
2022-08-30T12:32:32.420Z,1.70
2022-08-30T12:35:00.380Z,1.80
2022-08-30T12:37:26.677Z,1.73
2022-08-30T12:40:02.152Z,1.63
2022-08-30T12:42:30.114Z,1.70
2022-08-30T12:44:58.412Z,2.40
2022-08-30T12:47:28.758Z,1.88
2022-08-30T12:49:55.652Z,2.10
2022-08-30T12:52:31.638Z,1.55
2022-08-30T12:55:13.528Z,1.83
2022-08-30T12:58:01.087Z,1.90
2022-08-30T13:00:32.767Z,1.85
2022-08-30T13:03:01.774Z,1.83
2022-08-30T13:05:44.476Z,1.90
2022-08-30T13:08:14.534Z,1.45
2022-08-30T13:10:54.819Z,1.60
2022-08-30T13:13:38.139Z,1.45
2022-08-30T13:16:24.652Z,1.83
2022-08-30T13:18:54.538Z,1.90
2022-08-30T13:21:23.147Z,1.55
2022-08-30T13:23:53.008Z,1.92
2022-08-30T13:26:23.105Z,1.95
2022-08-30T13:28:51.485Z,1.80
2022-08-30T13:31:17.861Z,1.80
2022-08-30T13:33:47.041Z,2.40
2022-08-30T13:36:14.327Z,2.70
2022-08-30T13:38:41.302Z,2.60
2022-08-30T13:41:09.606Z,2.50
2022-08-30T13:44:09.365Z,2.38
2022-08-30T13:46:26.402Z,2.65
2022-08-30T13:49:00.376Z,2.80
2022-08-30T13:51:28.162Z,2.17
2022-08-30T13:53:54.782Z,2.25
2022-08-30T13:56:24.142Z,2.10
2022-08-30T13:58:51.478Z,2.53
2022-08-30T14:01:19.229Z,2.63
2022-08-30T14:06:34.086Z,2.38
2022-08-30T14:09:03.779Z,1.88
2022-08-30T14:11:30.932Z,2.05
2022-08-30T14:16:44.401Z,1.65
2022-08-30T14:19:12.159Z,1.48
2022-08-30T14:21:38.483Z,1.67
2022-08-30T14:24:06.355Z,1.55
2022-08-30T14:26:37.139Z,1.50
2022-08-30T14:29:09.131Z,1.55
2022-08-30T14:31:36.181Z,1.60
2022-08-30T14:34:05.244Z,1.67
2022-08-30T14:36:32.634Z,1.73
2022-08-30T14:38:59.703Z,1.40
2022-08-30T14:41:26.301Z,1.30
2022-08-30T14:43:52.701Z,1.60
2022-08-30T14:46:19.280Z,1.70
2022-08-30T14:48:46.910Z,1.40
2022-08-30T14:51:17.815Z,1.75
2022-08-30T14:53:44.361Z,1.35
2022-08-30T14:56:12.829Z,1.40
2022-08-30T14:58:39.173Z,1.60
2022-08-30T15:01:06.609Z,1.30
2022-08-30T15:03:33.072Z,1.30
2022-08-30T15:06:00.851Z,1.60
2022-08-30T15:08:27.314Z,1.50
2022-08-30T15:10:53.758Z,1.60
2022-08-30T15:13:20.063Z,1.35
2022-08-30T15:15:49.216Z,1.75
2022-08-30T15:18:17.042Z,1.60
2022-08-30T15:20:47.145Z,1.92
2022-08-30T15:23:13.881Z,1.23
2022-08-30T15:25:43.716Z,1.52
2022-08-30T15:28:10.041Z,1.67
2022-08-30T15:30:36.610Z,1.15
2022-08-30T15:33:02.958Z,1.20
2022-08-30T15:35:29.262Z,1.20
2022-08-30T15:37:55.587Z,1.35
2022-08-30T15:40:24.306Z,1.00
2022-08-30T15:42:52.783Z,1.50
2022-08-30T15:45:19.231Z,1.15
2022-08-30T15:47:46.029Z,1.70
2022-08-30T15:50:12.811Z,1.40
2022-08-30T15:52:39.131Z,1.33
2022-08-30T15:55:05.911Z,1.88
2022-08-30T15:57:32.443Z,1.33
2022-08-30T15:59:58.885Z,1.33
2022-08-30T16:02:27.800Z,1.70
2022-08-30T16:04:54.600Z,1.35
2022-08-30T16:07:20.903Z,1.55
2022-08-30T16:09:47.380Z,2.00
2022-08-30T16:12:22.325Z,1.42
2022-08-30T16:14:50.273Z,1.50
2022-08-30T16:17:16.712Z,1.58
2022-08-30T16:19:44.579Z,1.60
2022-08-30T16:22:11.255Z,1.38
2022-08-30T16:24:38.246Z,1.50
2022-08-30T16:27:05.575Z,1.45
2022-08-30T16:29:35.161Z,1.50
2022-08-30T16:32:01.557Z,1.40
2022-08-30T16:34:27.956Z,1.20
2022-08-30T16:36:54.326Z,1.13
2022-08-30T16:39:20.729Z,1.40
2022-08-30T16:41:47.138Z,1.67
2022-08-30T16:44:15.943Z,1.30
2022-08-30T16:46:53.400Z,1.48
2022-08-30T16:49:20.286Z,1.70
2022-08-30T16:51:49.438Z,1.17
2022-08-30T16:54:17.321Z,1.40
2022-08-30T16:56:44.099Z,1.55
2022-08-30T16:59:13.004Z,1.40
2022-08-30T17:01:39.440Z,1.70
2022-08-30T17:04:07.937Z,1.23
2022-08-30T17:06:35.724Z,1.80
2022-08-30T17:09:02.454Z,1.30
2022-08-30T17:11:28.866Z,1.40
2022-08-30T17:13:55.218Z,1.13
2022-08-30T17:16:27.287Z,1.27
2022-08-30T17:18:55.439Z,1.65
2022-08-30T17:21:21.789Z,1.52
2022-08-30T17:23:49.482Z,1.30
2022-08-30T17:26:16.078Z,1.50
2022-08-30T17:28:42.454Z,1.77
2022-08-30T17:31:10.574Z,1.55
2022-08-30T17:33:39.724Z,1.73
2022-08-30T17:36:06.394Z,1.35
2022-08-30T17:38:32.847Z,1.17
2022-08-30T17:41:07.344Z,1.17
2022-08-30T17:43:34.847Z,1.27
2022-08-30T17:46:09.808Z,1.63
2022-08-30T17:48:38.351Z,1.33
2022-08-30T17:51:04.987Z,1.30
2022-08-30T17:53:31.491Z,1.52
2022-08-30T17:56:01.431Z,1.50
2022-08-30T17:58:27.743Z,1.20
2022-08-30T18:00:56.899Z,1.40
2022-08-30T18:03:24.387Z,1.42
2022-08-30T18:05:50.735Z,1.80
2022-08-30T18:08:17.340Z,1.40
2022-08-30T18:10:43.737Z,1.40
2022-08-30T18:13:10.087Z,1.38
2022-08-30T18:15:36.487Z,1.15
2022-08-30T18:18:04.731Z,1.80
2022-08-30T18:20:31.877Z,1.70
2022-08-30T18:22:58.336Z,1.48
2022-08-30T18:25:24.698Z,1.40
2022-08-30T18:27:58.067Z,1.33
2022-08-30T18:30:33.212Z,1.58
2022-08-30T18:33:00.478Z,1.80
2022-08-30T18:35:28.514Z,1.85
2022-08-30T18:37:54.855Z,1.80
2022-08-30T18:40:21.331Z,1.50
2022-08-30T18:42:47.688Z,1.50
2022-08-30T18:45:15.064Z,1.52
2022-08-30T18:47:42.107Z,1.80
2022-08-30T18:50:08.565Z,1.60
2022-08-30T18:52:35.221Z,1.50
2022-08-30T18:55:02.148Z,1.60
2022-08-30T18:57:28.482Z,1.40
2022-08-30T18:59:57.455Z,1.50
2022-08-30T19:02:27.726Z,1.55
2022-08-30T19:04:54.666Z,1.77
2022-08-30T19:07:21.454Z,1.40
2022-08-30T19:09:53.415Z,2.00
2022-08-30T19:12:20.091Z,1.90
2022-08-30T19:14:47.497Z,1.90
2022-08-30T19:17:13.906Z,1.98
2022-08-30T19:19:48.960Z,1.98
2022-08-30T19:22:15.889Z,2.17
2022-08-30T19:24:42.244Z,2.03
2022-08-30T19:27:09.898Z,2.47
2022-08-30T19:29:36.279Z,2.40
2022-08-30T19:32:03.172Z,2.15
2022-08-30T19:34:30.206Z,2.15
2022-08-30T19:36:56.616Z,2.10
2022-08-30T19:39:23.785Z,2.30
2022-08-30T19:41:50.135Z,2.40
2022-08-30T19:44:16.530Z,2.67
2022-08-30T19:46:44.391Z,2.00
2022-08-30T19:49:11.171Z,1.65
2022-08-30T19:51:38.010Z,1.77
2022-08-30T19:54:04.545Z,2.03
2022-08-30T19:56:31.046Z,1.70
2022-08-30T19:58:57.414Z,1.70
2022-08-30T20:01:33.112Z,1.60
2022-08-30T20:04:03.005Z,1.55
2022-08-30T20:06:30.561Z,3.15
2022-08-30T20:08:58.086Z,1.52
2022-08-30T20:11:27.444Z,1.80
2022-08-30T20:13:53.794Z,1.90
2022-08-30T20:16:20.121Z,2.17
2022-08-30T20:18:48.861Z,1.98
2022-08-30T20:21:15.683Z,1.92
2022-08-30T20:23:43.011Z,2.55
2022-08-30T20:26:10.202Z,1.90
2022-08-30T20:28:37.123Z,2.17
2022-08-30T20:31:04.604Z,2.22
2022-08-30T20:33:31.093Z,2.00
2022-08-30T20:36:00.801Z,2.20
2022-08-30T20:38:27.170Z,2.38
2022-08-30T20:40:54.799Z,2.75
2022-08-30T20:43:22.188Z,1.98
2022-08-30T20:45:48.766Z,2.33
2022-08-30T20:48:15.355Z,2.10
2022-08-30T20:50:41.968Z,2.00
2022-08-30T20:53:08.695Z,1.70
2022-08-30T20:55:35.146Z,1.80
2022-08-30T20:58:01.539Z,1.85
2022-08-30T21:00:27.892Z,1.85
2022-08-30T21:02:54.419Z,2.25
2022-08-30T21:05:20.762Z,2.10
2022-08-30T21:07:47.130Z,1.90
2022-08-30T21:10:14.056Z,1.80
2022-08-30T21:12:40.393Z,2.15
2022-08-30T21:15:33.792Z,2.20
2022-08-30T21:17:53.824Z,2.08
2022-08-30T21:20:20.180Z,2.00
2022-08-30T21:22:47.165Z,1.80
2022-08-30T21:25:13.490Z,2.22
2022-08-30T21:27:39.851Z,2.20
2022-08-30T21:30:06.477Z,1.88
2022-08-30T21:32:32.816Z,1.95
2022-08-30T21:35:17.967Z,2.58
2022-08-30T21:37:44.327Z,2.00
2022-08-30T21:40:14.971Z,1.70
2022-08-30T21:42:41.834Z,2.10
2022-08-30T21:45:08.416Z,1.95
2022-08-30T21:47:35.120Z,1.58
2022-08-30T21:50:01.422Z,1.90
2022-08-30T21:52:27.762Z,1.70
2022-08-30T21:54:54.091Z,1.90
2022-08-30T21:57:20.466Z,1.77
2022-08-30T21:59:46.780Z,1.67
2022-08-30T22:02:13.167Z,1.75
2022-08-30T22:04:40.264Z,2.00
2022-08-30T22:07:08.209Z,2.20
2022-08-30T22:09:34.614Z,1.83
2022-08-30T22:12:00.927Z,1.90
2022-08-30T22:14:27.263Z,2.00
2022-08-30T22:16:53.642Z,1.83
2022-08-30T22:19:23.274Z,1.70
2022-08-30T22:21:50.106Z,1.63
2022-08-30T22:24:17.002Z,1.48
2022-08-30T22:26:44.182Z,1.85
2022-08-30T22:29:10.948Z,1.70
2022-08-30T22:31:41.621Z,2.03
2022-08-30T22:34:09.958Z,1.70
2022-08-30T22:36:37.467Z,1.95
2022-08-30T22:39:04.706Z,1.75
2022-08-30T22:41:31.697Z,2.00
2022-08-30T22:43:58.058Z,2.05
2022-08-30T22:46:31.410Z,1.90
2022-08-30T22:49:02.230Z,1.48
2022-08-30T22:51:28.567Z,1.80
2022-08-30T22:53:54.877Z,1.92
2022-08-30T22:56:22.453Z,1.70
2022-08-30T22:58:49.112Z,1.88
2022-08-30T23:01:19.912Z,2.05
2022-08-30T23:03:46.325Z,1.95
2022-08-30T23:06:12.695Z,1.90
2022-08-30T23:08:39.013Z,2.25
2022-08-30T23:11:05.406Z,1.90
2022-08-30T23:13:31.990Z,1.92
2022-08-30T23:16:00.088Z,1.80
2022-08-30T23:18:26.410Z,1.98
2022-08-30T23:20:52.714Z,1.80
2022-08-30T23:23:37.526Z,1.60
2022-08-30T23:26:22.262Z,1.77
2022-08-30T23:29:07.104Z,1.63
2022-08-30T23:31:51.932Z,1.55
2022-08-30T23:34:37.023Z,1.60
2022-08-30T23:37:21.893Z,1.92
2022-08-30T23:40:06.755Z,2.05
2022-08-30T23:42:53.095Z,1.52
2022-08-30T23:45:37.997Z,1.60
2022-08-30T23:48:22.928Z,1.92
2022-08-30T23:51:07.750Z,1.85
2022-08-30T23:53:52.569Z,1.73
2022-08-30T23:56:37.499Z,1.70
2022-08-30T23:59:22.347Z,1.48
